createdAt,value
2022-08-25T00:01:39.586Z,100432.63
2022-08-25T00:04:12.781Z,100439.44
2022-08-25T00:06:42.084Z,100439.69
2022-08-25T00:09:10.237Z,100432.56
2022-08-25T00:11:38.644Z,100433.69
2022-08-25T00:14:09.222Z,100432.56
2022-08-25T00:16:35.674Z,100431.44
2022-08-25T00:19:07.400Z,100424.84
2022-08-25T00:21:34.139Z,100431.66
2022-08-25T00:24:05.191Z,100434.59
2022-08-25T00:26:32.054Z,100429.06
2022-08-25T00:29:01.929Z,100424.97
2022-08-25T00:31:37.649Z,100424.94
2022-08-25T00:34:08.286Z,100430.66
2022-08-25T00:36:35.140Z,100430.09
2022-08-25T00:39:01.649Z,100422.38
2022-08-25T00:41:28.109Z,100428.41
2022-08-25T00:44:01.882Z,100438.19
2022-08-25T00:46:31.239Z,100419.81
2022-08-25T00:49:02.685Z,100438.13
2022-08-25T00:51:36.221Z,100439.19
2022-08-25T00:54:03.772Z,100438.06
2022-08-25T00:56:31.689Z,100434.19
2022-08-25T00:58:59.713Z,100436.38
2022-08-25T01:01:27.075Z,100420.78
2022-08-25T01:03:54.069Z,100439.00
2022-08-25T01:06:21.280Z,100444.16
2022-08-25T01:08:47.694Z,100435.97
2022-08-25T01:11:14.138Z,100438.59
2022-08-25T01:13:45.721Z,100433.63
2022-08-25T01:16:15.226Z,100435.00
2022-08-25T01:18:52.082Z,100428.44
2022-08-25T01:21:20.749Z,100433.00
2022-08-25T01:23:49.186Z,100435.66
2022-08-25T01:26:30.202Z,100434.81
2022-08-25T01:29:17.459Z,100432.03
2022-08-25T01:31:44.025Z,100435.81
2022-08-25T01:34:14.608Z,100429.22
2022-08-25T01:36:43.913Z,100437.31
2022-08-25T01:39:12.273Z,100435.38
2022-08-25T01:42:04.582Z,100438.88
2022-08-25T01:44:33.175Z,100438.31
2022-08-25T01:46:59.530Z,100433.94
2022-08-25T01:49:25.965Z,100435.66
2022-08-25T01:51:57.613Z,100443.28
2022-08-25T01:54:24.309Z,100443.81
2022-08-25T01:56:50.693Z,100431.03
2022-08-25T01:59:23.879Z,100432.28
2022-08-25T02:01:51.693Z,100434.50
2022-08-25T02:04:26.882Z,100441.84
2022-08-25T02:06:53.296Z,100440.44
2022-08-25T02:09:19.705Z,100440.97
2022-08-25T02:11:47.859Z,100443.69
2022-08-25T02:14:15.647Z,100444.69
2022-08-25T02:16:46.202Z,100433.13
2022-08-25T02:19:12.588Z,100445.09
2022-08-25T02:21:39.380Z,100449.66
2022-08-25T02:24:06.934Z,100453.44
2022-08-25T02:26:33.616Z,100456.94
2022-08-25T02:29:00.834Z,100451.75
2022-08-25T02:31:28.410Z,100440.28
2022-08-25T02:33:55.474Z,100450.94
2022-08-25T02:36:23.102Z,100446.59
2022-08-25T02:38:50.473Z,100450.94
2022-08-25T02:41:20.210Z,100443.06
2022-08-25T02:43:48.530Z,100444.44
2022-08-25T02:46:16.495Z,100447.88
2022-08-25T02:48:42.976Z,100442.16
2022-08-25T02:51:10.461Z,100439.75
2022-08-25T02:53:40.863Z,100437.31
2022-08-25T02:56:10.024Z,100435.59
2022-08-25T02:58:37.764Z,100430.59
2022-08-25T03:01:04.934Z,100429.16
2022-08-25T03:03:31.457Z,100431.25
2022-08-25T03:05:57.869Z,100425.97
2022-08-25T03:08:24.793Z,100424.75
2022-08-25T03:10:52.043Z,100417.38
2022-08-25T03:13:18.508Z,100420.03
2022-08-25T03:15:45.780Z,100412.06
2022-08-25T03:18:12.235Z,100409.03
2022-08-25T03:20:40.882Z,100410.91
2022-08-25T03:23:07.767Z,100407.84
2022-08-25T03:25:52.766Z,100406.44
2022-08-25T03:28:21.036Z,100402.56
2022-08-25T03:30:56.210Z,100394.13
2022-08-25T03:33:22.888Z,100392.41
2022-08-25T03:35:49.595Z,100398.66
2022-08-25T03:38:16.856Z,100401.03
2022-08-25T03:40:43.341Z,100395.88
2022-08-25T03:43:09.760Z,100397.53
2022-08-25T03:45:41.368Z,100393.22
2022-08-25T03:48:07.811Z,100387.38
2022-08-25T03:50:34.235Z,100393.63
2022-08-25T03:53:00.736Z,100388.44
2022-08-25T03:55:27.915Z,100396.09
2022-08-25T03:57:56.173Z,100391.16
2022-08-25T04:00:23.665Z,100391.94
2022-08-25T04:02:50.164Z,100393.56
2022-08-25T04:05:16.677Z,100377.53
2022-08-25T04:07:43.050Z,100348.22
2022-08-25T04:10:10.663Z,100366.09
2022-08-25T04:12:37.742Z,100361.84
2022-08-25T04:15:06.035Z,100357.31
2022-08-25T04:17:32.560Z,100357.31
2022-08-25T04:19:59.546Z,100359.69
2022-08-25T04:22:25.968Z,100351.41
2022-08-25T04:24:55.290Z,100359.06
2022-08-25T04:27:21.717Z,100354.19
2022-08-25T04:29:48.085Z,100357.72
2022-08-25T04:32:14.541Z,100365.69
2022-08-25T04:34:41.540Z,100364.88
2022-08-25T04:37:08.450Z,100357.81
2022-08-25T04:39:35.110Z,100367.75
2022-08-25T04:42:02.038Z,100353.56
2022-08-25T04:44:30.101Z,100360.44
2022-08-25T04:46:56.977Z,100371.03
2022-08-25T04:49:23.336Z,100359.63
2022-08-25T04:51:49.854Z,100371.69
2022-08-25T04:54:17.328Z,100368.97
2022-08-25T04:56:43.901Z,100371.94
2022-08-25T04:59:12.943Z,100371.59
2022-08-25T05:01:40.445Z,100366.09
2022-08-25T05:04:08.943Z,100367.19
2022-08-25T05:06:41.284Z,100367.69
2022-08-25T05:09:07.765Z,100366.28
2022-08-25T05:11:34.314Z,100355.19
2022-08-25T05:14:02.468Z,100362.34
2022-08-25T05:16:29.999Z,100364.78
2022-08-25T05:18:56.802Z,100343.91
2022-08-25T05:21:26.690Z,100363.84
2022-08-25T05:23:58.696Z,100362.50
2022-08-25T05:26:26.801Z,100364.16
2022-08-25T05:28:54.897Z,100362.03
2022-08-25T05:31:23.475Z,100362.28
2022-08-25T05:33:50.956Z,100361.66
2022-08-25T05:36:19.741Z,100354.63
2022-08-25T05:38:46.556Z,100355.00
2022-08-25T05:41:19.016Z,100342.28
2022-08-25T05:43:48.600Z,100348.78
2022-08-25T05:46:16.999Z,100345.25
2022-08-25T05:48:43.502Z,100347.41
2022-08-25T05:51:11.184Z,100346.97
2022-08-25T05:53:39.482Z,100346.97
2022-08-25T05:56:06.185Z,100346.72
2022-08-25T05:58:32.700Z,100326.44
2022-08-25T06:01:20.201Z,100349.97
2022-08-25T06:03:47.567Z,100354.94
2022-08-25T06:06:15.962Z,100347.63
2022-08-25T06:08:44.342Z,100344.69
2022-08-25T06:11:12.561Z,100361.63
2022-08-25T06:13:39.541Z,100344.00
2022-08-25T06:16:06.838Z,100342.66
2022-08-25T06:18:33.307Z,100347.66
2022-08-25T06:20:59.677Z,100347.13
2022-08-25T06:23:26.151Z,100341.44
2022-08-25T06:25:54.050Z,100348.84
2022-08-25T06:28:20.992Z,100354.59
2022-08-25T06:30:47.996Z,100355.13
2022-08-25T06:33:14.646Z,100349.75
2022-08-25T06:35:43.415Z,100354.69
2022-08-25T06:38:10.814Z,100358.81
2022-08-25T06:40:37.941Z,100367.88
2022-08-25T06:43:08.699Z,100365.19
2022-08-25T06:45:35.793Z,100366.06
2022-08-25T06:48:02.290Z,100373.44
2022-08-25T06:50:28.784Z,100369.94
2022-08-25T06:52:55.224Z,100373.00
2022-08-25T06:55:21.745Z,100367.63
2022-08-25T06:57:48.495Z,100376.41
2022-08-25T07:00:15.200Z,100378.09
2022-08-25T07:02:42.568Z,100375.94
2022-08-25T07:05:13.259Z,100372.72
2022-08-25T07:07:43.082Z,100359.09
2022-08-25T07:10:10.593Z,100392.47
2022-08-25T07:12:37.000Z,100369.06
2022-08-25T07:15:19.545Z,100350.25
2022-08-25T07:17:47.604Z,100368.31
2022-08-25T07:20:16.275Z,100365.09
2022-08-25T07:22:42.733Z,100364.31
2022-08-25T07:25:11.138Z,100374.16
2022-08-25T07:27:38.555Z,100369.81
2022-08-25T07:30:09.594Z,100373.94
2022-08-25T07:32:37.696Z,100358.69
2022-08-25T07:35:15.398Z,100354.31
2022-08-25T07:37:52.862Z,100364.97
2022-08-25T07:40:23.318Z,100368.25
2022-08-25T07:42:51.574Z,100372.59
2022-08-25T07:45:20.702Z,100383.81
2022-08-25T07:47:47.989Z,100359.53
2022-08-25T07:50:14.720Z,100376.72
2022-08-25T07:52:41.656Z,100370.16
2022-08-25T07:55:11.199Z,100376.44
2022-08-25T07:57:39.977Z,100375.06
2022-08-25T08:00:07.958Z,100372.31
2022-08-25T08:02:39.017Z,100371.47
2022-08-25T08:05:08.433Z,100382.06
2022-08-25T08:07:43.262Z,100373.03
2022-08-25T08:10:42.416Z,100379.56
2022-08-25T08:12:59.537Z,100371.56
2022-08-25T08:15:26.112Z,100371.78
2022-08-25T08:17:56.698Z,100354.03
2022-08-25T08:20:24.632Z,100373.06
2022-08-25T08:22:51.098Z,100372.19
2022-08-25T08:25:21.306Z,100361.75
2022-08-25T08:27:54.884Z,100361.13
2022-08-25T08:30:23.751Z,100354.97
2022-08-25T08:33:09.110Z,100352.97
2022-08-25T08:35:35.825Z,100346.84
2022-08-25T08:38:02.902Z,100346.25
2022-08-25T08:40:32.905Z,100340.91
2022-08-25T08:43:07.035Z,100340.66
2022-08-25T08:45:51.883Z,100340.16
2022-08-25T08:48:55.462Z,100329.75
2022-08-25T08:51:25.875Z,100325.31
2022-08-25T08:54:02.491Z,100332.16
2022-08-25T08:56:31.972Z,100332.06
2022-08-25T08:59:13.021Z,100334.91
2022-08-25T09:02:13.853Z,100336.22
2022-08-25T09:05:02.976Z,100324.81
2022-08-25T09:07:39.442Z,100328.72
2022-08-25T09:10:10.349Z,100328.94
2022-08-25T09:12:48.223Z,100321.84
2022-08-25T09:15:53.227Z,100322.78
2022-08-25T09:18:41.282Z,100319.38
2022-08-25T09:21:26.219Z,100322.59
2022-08-25T09:24:11.790Z,100322.69
2022-08-25T09:26:56.185Z,100316.16
2022-08-25T09:29:26.917Z,100315.72
2022-08-25T09:31:58.062Z,100316.91
2022-08-25T09:34:30.212Z,100314.44
2022-08-25T09:36:56.719Z,100311.25
2022-08-25T09:39:23.701Z,100307.63
2022-08-25T09:41:51.981Z,100315.88
2022-08-25T09:44:43.645Z,100306.06
2022-08-25T09:47:23.576Z,100302.75
2022-08-25T09:49:56.682Z,100303.06
2022-08-25T09:52:28.960Z,100303.41
2022-08-25T09:54:57.733Z,100307.44
2022-08-25T09:57:44.514Z,100293.41
2022-08-25T10:00:22.151Z,100291.66
2022-08-25T10:03:13.935Z,100297.03
2022-08-25T10:06:01.208Z,100299.16
2022-08-25T10:08:39.391Z,100298.94
2022-08-25T10:11:12.890Z,100290.41
2022-08-25T10:14:02.550Z,100291.34
2022-08-25T10:16:36.536Z,100290.81
2022-08-25T10:19:25.821Z,100287.03
2022-08-25T10:22:07.425Z,100260.34
2022-08-25T10:24:35.136Z,100290.97
2022-08-25T10:27:14.753Z,100287.72
2022-08-25T10:30:12.491Z,100278.00
2022-08-25T10:32:58.047Z,100275.00
2022-08-25T10:35:31.217Z,100273.84
2022-08-25T10:38:36.062Z,100278.78
2022-08-25T10:41:16.703Z,100275.41
2022-08-25T10:43:53.588Z,100274.25
2022-08-25T10:46:52.755Z,100259.16
2022-08-25T10:49:33.903Z,100273.47
2022-08-25T10:52:07.436Z,100265.34
2022-08-25T10:54:44.611Z,100251.75
2022-08-25T10:57:32.709Z,100247.19
2022-08-25T11:00:12.245Z,100249.22
2022-08-25T11:02:52.489Z,100243.69
2022-08-25T11:05:40.045Z,100239.72
2022-08-25T11:08:39.911Z,100233.22
2022-08-25T11:11:24.153Z,100232.31
2022-08-25T11:14:03.640Z,100228.94
2022-08-25T11:16:40.336Z,100226.13
2022-08-25T11:19:16.023Z,100225.38
2022-08-25T11:21:51.994Z,100232.19
2022-08-25T11:24:18.541Z,100229.78
2022-08-25T11:26:53.281Z,100239.88
2022-08-25T11:29:21.946Z,100232.03
2022-08-25T11:31:53.650Z,100215.91
2022-08-25T11:34:21.765Z,100225.41
2022-08-25T11:37:20.249Z,100237.44
2022-08-25T11:40:17.250Z,100218.31
2022-08-25T11:43:14.659Z,100216.28
2022-08-25T11:45:59.035Z,100215.13
2022-08-25T11:48:37.369Z,100210.63
2022-08-25T11:51:08.041Z,100212.59
2022-08-25T11:53:43.804Z,100197.56
2022-08-25T11:56:31.613Z,100213.13
2022-08-25T11:58:59.467Z,100205.00
2022-08-25T12:01:42.975Z,100205.00
2022-08-25T12:04:33.607Z,100200.38
2022-08-25T12:07:06.805Z,100193.81
2022-08-25T12:09:54.498Z,100191.81
2022-08-25T12:12:31.168Z,100182.25
2022-08-25T12:15:32.088Z,100184.63
2022-08-25T12:18:09.297Z,100175.13
2022-08-25T12:21:02.482Z,100170.16
2022-08-25T12:23:44.794Z,100173.00
2022-08-25T12:26:32.017Z,100163.56
2022-08-25T12:29:25.645Z,100165.44
2022-08-25T12:32:07.239Z,100165.19
2022-08-25T12:34:52.753Z,100153.31
2022-08-25T12:37:24.188Z,100137.78
2022-08-25T12:39:50.607Z,100157.16
2022-08-25T12:42:39.682Z,100146.91
2022-08-25T12:45:21.207Z,100148.31
2022-08-25T12:47:49.506Z,100147.41
2022-08-25T12:50:47.602Z,100149.91
2022-08-25T12:53:22.385Z,100128.28
2022-08-25T12:55:54.135Z,100143.44
2022-08-25T12:58:23.045Z,100148.19
2022-08-25T13:01:36.002Z,100149.16
2022-08-25T13:04:58.632Z,100145.97
2022-08-25T13:07:25.053Z,100137.00
2022-08-25T13:10:13.318Z,100133.66
2022-08-25T13:13:06.017Z,100119.50
2022-08-25T13:15:32.308Z,100120.31
2022-08-25T13:18:19.958Z,100113.03
2022-08-25T13:20:49.874Z,100115.00
2022-08-25T13:23:21.058Z,100109.50
2022-08-25T13:25:52.939Z,100103.88
2022-08-25T13:28:37.985Z,100098.84
2022-08-25T13:31:16.279Z,100098.97
2022-08-25T13:33:56.476Z,100098.25
2022-08-25T13:36:51.994Z,100091.41
2022-08-25T13:39:45.503Z,100094.16
2022-08-25T13:42:15.665Z,100092.13
2022-08-25T13:44:52.406Z,100086.75
2022-08-25T13:47:43.676Z,100092.00
2022-08-25T13:50:27.246Z,100081.56
2022-08-25T13:53:02.430Z,100073.00
2022-08-25T13:55:50.975Z,100081.00
2022-08-25T13:58:45.082Z,100061.81
2022-08-25T14:01:22.264Z,100075.63
2022-08-25T14:04:26.619Z,100066.28
2022-08-25T14:07:11.812Z,100074.88
2022-08-25T14:10:00.224Z,100060.75
2022-08-25T14:12:29.916Z,100073.13
2022-08-25T14:15:07.772Z,100050.91
2022-08-25T14:17:39.382Z,100066.25
2022-08-25T14:20:17.136Z,100063.69
2022-08-25T14:22:43.561Z,100056.28
2022-08-25T14:25:11.227Z,100059.31
2022-08-25T14:27:56.813Z,100055.31
2022-08-25T14:30:29.404Z,100059.25
2022-08-25T14:32:56.525Z,100060.22
2022-08-25T14:35:22.911Z,100064.09
2022-08-25T14:37:49.405Z,100052.63
2022-08-25T14:40:20.038Z,100051.00
2022-08-25T14:42:47.578Z,100037.22
2022-08-25T14:45:15.942Z,100032.91
2022-08-25T14:47:44.006Z,100055.16
2022-08-25T14:50:20.957Z,100037.63
2022-08-25T14:52:48.180Z,100043.63
2022-08-25T14:55:21.143Z,100053.75
2022-08-25T14:57:58.326Z,100029.50
2022-08-25T15:00:25.306Z,100042.41
2022-08-25T15:02:52.968Z,100012.28
2022-08-25T15:05:25.630Z,100033.31
2022-08-25T15:08:12.263Z,100023.34
2022-08-25T15:10:40.128Z,100027.56
2022-08-25T15:13:06.949Z,100021.50
2022-08-25T15:15:38.035Z,100020.88
2022-08-25T15:18:05.505Z,100013.66
2022-08-25T15:20:32.656Z,100005.84
2022-08-25T15:22:59.000Z,100006.91
2022-08-25T15:25:25.564Z,100010.34
2022-08-25T15:27:52.168Z,100002.47
2022-08-25T15:30:18.597Z,100005.00
2022-08-25T15:32:44.938Z,99999.38
2022-08-25T15:35:15.232Z,100006.88
2022-08-25T15:37:42.105Z,100001.34
2022-08-25T15:40:09.030Z,100003.53
2022-08-25T15:42:37.763Z,100007.13
2022-08-25T15:45:09.852Z,99999.75
2022-08-25T15:47:36.244Z,100003.56
2022-08-25T15:50:15.356Z,100003.22
2022-08-25T15:52:46.683Z,99997.91
2022-08-25T15:55:16.309Z,100003.78
2022-08-25T15:57:43.184Z,99967.50
2022-08-25T16:00:12.146Z,99998.28
2022-08-25T16:02:40.169Z,99994.84
2022-08-25T16:05:08.302Z,99999.34
2022-08-25T16:07:35.203Z,99995.00
2022-08-25T16:10:03.937Z,99990.72
2022-08-25T16:12:31.546Z,99991.28
2022-08-25T16:14:58.236Z,99994.31
2022-08-25T16:17:24.961Z,99984.88
2022-08-25T16:19:51.325Z,99984.25
2022-08-25T16:22:17.693Z,99984.97
2022-08-25T16:24:44.947Z,99980.13
2022-08-25T16:27:12.848Z,99981.94
2022-08-25T16:29:41.949Z,99986.91
2022-08-25T16:32:10.286Z,99981.03
2022-08-25T16:34:36.762Z,99984.59
2022-08-25T16:37:03.619Z,99985.97
2022-08-25T16:39:31.148Z,99982.47
2022-08-25T16:41:57.704Z,99985.47
2022-08-25T16:44:24.616Z,99982.81
2022-08-25T16:46:54.551Z,99976.91
2022-08-25T16:49:21.361Z,99960.06
2022-08-25T16:51:57.704Z,99972.25
2022-08-25T16:54:44.796Z,99984.03
2022-08-25T16:57:11.405Z,99967.09
2022-08-25T16:59:37.780Z,99978.56
2022-08-25T17:02:04.249Z,99984.50
2022-08-25T17:04:32.449Z,99964.34
2022-08-25T17:06:59.073Z,99977.25
2022-08-25T17:09:25.444Z,99980.06
2022-08-25T17:11:56.453Z,99974.88
2022-08-25T17:14:22.840Z,99975.53
2022-08-25T17:16:50.934Z,99974.09
2022-08-25T17:19:17.428Z,99976.56
2022-08-25T17:21:46.018Z,99975.16
2022-08-25T17:24:13.481Z,99969.81
2022-08-25T17:26:42.133Z,99966.25
2022-08-25T17:29:09.237Z,99963.72
2022-08-25T17:31:39.443Z,99966.78
2022-08-25T17:34:10.339Z,99981.38
2022-08-25T17:36:37.834Z,99956.44
2022-08-25T17:39:07.432Z,99982.88
2022-08-25T17:41:33.905Z,99978.50
2022-08-25T17:44:04.847Z,99970.09
2022-08-25T17:46:31.352Z,99972.03
2022-08-25T17:48:57.786Z,99975.91
2022-08-25T17:51:24.918Z,99978.16
2022-08-25T17:53:52.733Z,99976.34
2022-08-25T17:56:22.788Z,99978.28
2022-08-25T17:58:50.650Z,99975.38
2022-08-25T18:01:19.874Z,99983.69
2022-08-25T18:03:49.095Z,99984.00
2022-08-25T18:06:16.000Z,99989.59
2022-08-25T18:08:44.210Z,99981.78
2022-08-25T18:11:11.124Z,99980.84
2022-08-25T18:13:38.873Z,99987.28
2022-08-25T18:16:05.712Z,99989.47
2022-08-25T18:18:34.229Z,99993.94
2022-08-25T18:21:02.332Z,99986.25
2022-08-25T18:23:29.752Z,99985.69
2022-08-25T18:26:00.753Z,99984.41
2022-08-25T18:28:28.679Z,99984.50
2022-08-25T18:30:55.910Z,99992.38
2022-08-25T18:33:22.747Z,99990.97
2022-08-25T18:35:49.069Z,99986.53
2022-08-25T18:38:33.759Z,99992.84
2022-08-25T18:41:04.717Z,99988.91
2022-08-25T18:43:34.064Z,99993.44
2022-08-25T18:46:04.095Z,99992.25
2022-08-25T18:48:31.921Z,99992.13
2022-08-25T18:51:00.771Z,99995.28
2022-08-25T18:53:30.109Z,99997.63
2022-08-25T18:56:04.086Z,99991.19
2022-08-25T18:58:30.464Z,99986.94
2022-08-25T19:00:56.894Z,99994.75
2022-08-25T19:03:23.422Z,99993.50
2022-08-25T19:05:57.140Z,99991.44
2022-08-25T19:08:24.928Z,99997.63
2022-08-25T19:10:53.463Z,99994.44
2022-08-25T19:13:22.794Z,99991.56
2022-08-25T19:15:52.292Z,99995.31
2022-08-25T19:18:25.838Z,99996.50
2022-08-25T19:20:52.612Z,99998.78
2022-08-25T19:23:19.717Z,100001.53
2022-08-25T19:25:46.094Z,99990.38
2022-08-25T19:28:13.353Z,99993.19
2022-08-25T19:30:43.701Z,99993.19
2022-08-25T19:33:37.698Z,99996.22
2022-08-25T19:36:04.363Z,99991.75
2022-08-25T19:38:34.026Z,99999.59
2022-08-25T19:41:02.494Z,99968.34
2022-08-25T19:43:28.882Z,99991.19
2022-08-25T19:45:55.325Z,99978.69
2022-08-25T19:48:23.252Z,99972.47
2022-08-25T19:50:50.716Z,99995.16
2022-08-25T19:53:22.665Z,100008.31
2022-08-25T19:55:49.116Z,99992.06
2022-08-25T19:58:15.880Z,99993.84
2022-08-25T20:00:47.109Z,100000.72
2022-08-25T20:03:17.303Z,100003.06
2022-08-25T20:05:43.762Z,99999.59
2022-08-25T20:08:10.537Z,100005.06
2022-08-25T20:10:41.860Z,99995.97
2022-08-25T20:13:09.241Z,100006.75
2022-08-25T20:15:37.200Z,99983.16
2022-08-25T20:18:05.649Z,99994.84
2022-08-25T20:20:34.578Z,100010.88
2022-08-25T20:23:21.098Z,100018.34
2022-08-25T20:25:50.228Z,100016.78
2022-08-25T20:28:19.056Z,100017.41
2022-08-25T20:30:46.064Z,100018.78
2022-08-25T20:33:13.128Z,100021.56
2022-08-25T20:35:39.847Z,100019.47
2022-08-25T20:38:07.329Z,100019.47
2022-08-25T20:40:34.283Z,100028.28
2022-08-25T20:43:04.348Z,100019.09
2022-08-25T20:45:31.003Z,100022.97
2022-08-25T20:47:57.599Z,100027.88
2022-08-25T20:50:24.733Z,100027.94
2022-08-25T20:52:54.409Z,100035.09
2022-08-25T20:55:21.723Z,100015.84
2022-08-25T20:57:48.964Z,100025.47
2022-08-25T21:00:16.504Z,100032.25
2022-08-25T21:02:46.015Z,100015.09
2022-08-25T21:05:12.784Z,100027.13
2022-08-25T21:07:39.208Z,100024.72
2022-08-25T21:10:14.430Z,100024.78
2022-08-25T21:12:41.524Z,100024.47
2022-08-25T21:15:10.312Z,100021.28
2022-08-25T21:17:36.728Z,100024.09
2022-08-25T21:20:06.653Z,100025.81
2022-08-25T21:22:35.083Z,100019.31
2022-08-25T21:25:01.674Z,100023.72
2022-08-25T21:27:29.573Z,100012.09
2022-08-25T21:29:56.017Z,100011.00
2022-08-25T21:32:23.775Z,100029.31
2022-08-25T21:34:53.961Z,100021.47
2022-08-25T21:37:20.529Z,100030.19
2022-08-25T21:39:46.978Z,100035.97
2022-08-25T21:42:13.469Z,100030.22
2022-08-25T21:44:40.246Z,100023.19
2022-08-25T21:47:06.642Z,100033.81
2022-08-25T21:49:37.592Z,100033.56
2022-08-25T21:52:04.591Z,100030.59
2022-08-25T21:54:31.922Z,100037.94
2022-08-25T21:57:07.260Z,100034.41
2022-08-25T21:59:37.612Z,100038.53
2022-08-25T22:02:07.747Z,100036.09
2022-08-25T22:04:36.233Z,100032.81
2022-08-25T22:07:02.659Z,100037.72
2022-08-25T22:09:29.754Z,100036.91
2022-08-25T22:11:57.013Z,100028.47
2022-08-25T22:14:26.271Z,100034.16
2022-08-25T22:16:53.833Z,100033.63
2022-08-25T22:19:21.442Z,100012.94
2022-08-25T22:21:49.680Z,100031.47
2022-08-25T22:24:17.274Z,100025.22
2022-08-25T22:26:43.666Z,100030.69
2022-08-25T22:29:14.318Z,100039.16
2022-08-25T22:31:53.022Z,100036.19
2022-08-25T22:34:30.221Z,100038.66
2022-08-25T22:36:59.795Z,100041.13
2022-08-25T22:39:26.497Z,100041.13
2022-08-25T22:41:52.850Z,100041.13
2022-08-25T22:44:19.190Z,100038.41
2022-08-25T22:46:45.598Z,100041.94
2022-08-25T22:49:12.380Z,100019.63
2022-08-25T22:51:38.785Z,100024.47
2022-08-25T22:54:05.904Z,100033.22
2022-08-25T22:56:37.592Z,100041.44
2022-08-25T22:59:11.390Z,100041.44
2022-08-25T23:01:37.956Z,100037.38
2022-08-25T23:04:06.681Z,100037.94
2022-08-25T23:06:34.422Z,100045.31
2022-08-25T23:09:02.137Z,100043.13
2022-08-25T23:11:29.009Z,100038.25
2022-08-25T23:13:57.150Z,100043.97
2022-08-25T23:16:23.897Z,100040.97
2022-08-25T23:18:50.847Z,100038.50
2022-08-25T23:21:38.151Z,100045.03
2022-08-25T23:24:08.727Z,100047.22
2022-08-25T23:26:37.106Z,100048.00
2022-08-25T23:29:18.048Z,100038.47
2022-08-25T23:31:46.734Z,100045.25
2022-08-25T23:34:14.877Z,100040.63
2022-08-25T23:36:41.307Z,100041.19
2022-08-25T23:39:09.109Z,100046.34
2022-08-25T23:41:36.996Z,100050.41
2022-08-25T23:44:05.282Z,100043.03
2022-08-25T23:46:34.838Z,100035.19
2022-08-25T23:49:02.752Z,100063.53
2022-08-25T23:51:33.448Z,100051.00
2022-08-25T23:54:05.807Z,100047.75
2022-08-25T23:56:34.289Z,100044.78
2022-08-25T23:59:02.458Z,100048.91
